createdAt,value
2018-09-01T00:00:55.488Z,14.50
2018-09-01T00:01:55.480Z,14.39
2018-09-01T00:02:55.495Z,14.42
2018-09-01T00:03:55.451Z,14.45
2018-09-01T00:04:55.440Z,14.45
2018-09-01T00:05:55.431Z,14.50
2018-09-01T00:06:55.419Z,14.45
2018-09-01T00:07:55.409Z,14.45
2018-09-01T00:08:55.414Z,14.40
2018-09-01T00:09:55.387Z,14.40
2018-09-01T00:10:55.377Z,14.35
2018-09-01T00:11:55.363Z,14.36
2018-09-01T00:12:55.366Z,14.33
2018-09-01T00:13:55.343Z,14.28
2018-09-01T00:14:55.338Z,14.39
2018-09-01T00:15:55.320Z,14.39
2018-09-01T00:16:55.312Z,14.33
2018-09-01T00:17:55.313Z,14.33
2018-09-01T00:18:55.288Z,14.32
2018-09-01T00:19:55.278Z,14.29
2018-09-01T00:20:55.282Z,14.32
2018-09-01T00:21:55.256Z,14.29
2018-09-01T00:22:55.246Z,14.24
2018-09-01T00:23:55.234Z,14.24
2018-09-01T00:24:55.235Z,14.21
2018-09-01T00:25:55.213Z,14.18
2018-09-01T00:26:55.199Z,14.15
2018-09-01T00:27:55.194Z,14.24
2018-09-01T00:28:55.179Z,14.22
2018-09-01T00:29:55.213Z,14.18
2018-09-01T00:30:55.160Z,14.10
2018-09-01T00:31:55.147Z,14.12
2018-09-01T00:32:55.138Z,14.10
2018-09-01T00:33:55.127Z,14.10
2018-09-01T00:34:55.116Z,14.17
2018-09-01T00:35:55.127Z,14.07
2018-09-01T00:36:55.092Z,14.02
2018-09-01T00:37:55.079Z,14.06
2018-09-01T00:38:55.070Z,13.99
2018-09-01T00:39:55.056Z,13.92
2018-09-01T00:40:55.046Z,13.92
2018-09-01T00:41:55.055Z,13.99
2018-09-01T00:42:55.024Z,13.97
2018-09-01T00:43:55.031Z,13.88
2018-09-01T00:44:55.013Z,13.92
2018-09-01T00:45:55.007Z,13.81
2018-09-01T00:46:55.023Z,13.79
2018-09-01T00:47:54.968Z,13.77
2018-09-01T00:48:54.960Z,13.77
2018-09-01T00:49:54.949Z,13.69
2018-09-01T00:50:54.939Z,13.67
2018-09-01T00:51:54.927Z,13.55
2018-09-01T00:52:54.931Z,13.59
2018-09-01T00:53:54.903Z,13.60
2018-09-01T00:54:54.896Z,13.57
2018-09-01T00:55:54.885Z,13.48
2018-09-01T00:56:54.887Z,13.46
2018-09-01T00:57:54.877Z,13.45
2018-09-01T00:58:54.849Z,13.44
2018-09-01T00:59:54.841Z,13.38
2018-09-01T01:00:54.830Z,13.30
2018-09-01T01:01:54.816Z,13.29
2018-09-01T01:02:54.826Z,13.23
2018-09-01T01:03:54.796Z,13.22
2018-09-01T01:04:54.784Z,13.14
2018-09-01T01:05:54.772Z,13.08
2018-09-01T01:06:54.764Z,13.10
2018-09-01T01:07:54.754Z,13.01
2018-09-01T01:08:54.759Z,12.97
2018-09-01T01:09:54.726Z,12.89
2018-09-01T01:10:54.715Z,12.90
2018-09-01T01:11:54.708Z,12.85
2018-09-01T01:12:54.692Z,12.89
2018-09-01T01:13:54.706Z,12.85
2018-09-01T01:14:54.674Z,12.74
2018-09-01T01:15:54.666Z,12.82
2018-09-01T01:16:54.652Z,12.75
2018-09-01T01:17:54.639Z,12.78
2018-09-01T01:18:54.626Z,12.70
2018-09-01T01:19:54.637Z,12.71
2018-09-01T01:20:54.605Z,12.74
2018-09-01T01:21:54.592Z,12.56
2018-09-01T01:22:54.582Z,12.57
2018-09-01T01:23:54.577Z,12.59
2018-09-01T01:24:54.559Z,12.59
2018-09-01T01:25:54.566Z,12.57
2018-09-01T01:26:54.539Z,12.52
2018-09-01T01:27:54.530Z,12.49
2018-09-01T01:28:54.517Z,12.38
2018-09-01T01:29:54.519Z,12.45
2018-09-01T01:30:54.496Z,12.39
2018-09-01T01:31:54.504Z,12.27
2018-09-01T01:32:54.470Z,12.28
2018-09-01T01:33:54.461Z,12.34
2018-09-01T01:34:54.447Z,12.28
2018-09-01T01:35:54.440Z,12.16
2018-09-01T01:36:54.430Z,12.29
2018-09-01T01:37:54.431Z,12.19
2018-09-01T01:38:54.403Z,12.21
2018-09-01T01:39:54.394Z,12.14
2018-09-01T01:40:54.384Z,12.13
2018-09-01T01:41:54.411Z,12.16
2018-09-01T01:42:54.378Z,12.12
2018-09-01T01:43:54.352Z,11.99
2018-09-01T01:44:54.338Z,12.05
2018-09-01T01:45:54.325Z,12.07
2018-09-01T01:46:54.315Z,12.07
2018-09-01T01:47:54.328Z,12.07
2018-09-01T01:48:54.293Z,11.96
2018-09-01T01:49:54.284Z,11.96
2018-09-01T01:50:54.274Z,11.90
2018-09-01T01:51:54.265Z,11.91
2018-09-01T01:52:54.249Z,11.90
2018-09-01T01:53:54.261Z,11.85
2018-09-01T01:54:54.229Z,11.83
2018-09-01T01:55:54.217Z,11.94
2018-09-01T01:56:54.207Z,11.83
2018-09-01T01:57:54.199Z,11.76
2018-09-01T01:58:54.185Z,11.72
2018-09-01T01:59:54.187Z,11.78
2018-09-01T02:00:54.166Z,11.75
2018-09-01T02:01:54.157Z,11.75
2018-09-01T02:02:54.161Z,11.69
2018-09-01T02:03:54.141Z,11.65
2018-09-01T02:04:54.121Z,11.72
2018-09-01T02:05:54.111Z,11.72
2018-09-01T02:06:54.100Z,11.69
2018-09-01T02:07:54.103Z,11.67
2018-09-01T02:08:54.075Z,11.70
2018-09-01T02:09:54.081Z,11.69
2018-09-01T02:10:54.064Z,11.62
2018-09-01T02:11:54.042Z,11.61
2018-09-01T02:12:54.045Z,11.58
2018-09-01T02:13:54.023Z,11.55
2018-09-01T02:14:54.024Z,11.49
2018-09-01T02:15:54.001Z,11.49
2018-09-01T02:16:53.990Z,11.46
2018-09-01T02:17:53.978Z,11.47
2018-09-01T02:18:53.970Z,11.43
2018-09-01T02:19:53.974Z,11.44
2018-09-01T02:20:53.945Z,11.39
2018-09-01T02:21:53.936Z,11.39
2018-09-01T02:22:53.926Z,11.32
2018-09-01T02:23:53.914Z,11.32
2018-09-01T02:24:53.919Z,11.25
2018-09-01T02:25:53.911Z,11.32
2018-09-01T02:26:53.880Z,11.29
2018-09-01T02:27:53.871Z,11.21
2018-09-01T02:28:53.866Z,11.32
2018-09-01T02:29:53.887Z,11.27
2018-09-01T02:30:53.843Z,11.24
2018-09-01T02:31:53.828Z,11.22
2018-09-01T02:32:53.817Z,11.24
2018-09-01T02:33:53.805Z,11.15
2018-09-01T02:34:53.796Z,11.19
2018-09-01T02:35:53.808Z,11.17
2018-09-01T02:36:53.776Z,11.11
2018-09-01T02:37:53.763Z,11.09
2018-09-01T02:38:53.749Z,11.09
2018-09-01T02:39:53.741Z,11.00
2018-09-01T02:40:53.731Z,11.00
2018-09-01T02:41:53.735Z,10.99
2018-09-01T02:42:53.707Z,11.02
2018-09-01T02:43:53.694Z,10.97
2018-09-01T02:44:53.687Z,10.94
2018-09-01T02:45:53.673Z,10.92
2018-09-01T02:46:53.710Z,10.82
2018-09-01T02:47:53.654Z,10.84
2018-09-01T02:48:53.640Z,10.78
2018-09-01T02:49:53.632Z,10.78
2018-09-01T02:50:53.623Z,10.76
2018-09-01T02:51:53.610Z,10.76
2018-09-01T02:52:53.616Z,10.79
2018-09-01T02:53:53.587Z,10.82
2018-09-01T02:54:53.576Z,10.79
2018-09-01T02:55:53.566Z,10.74
2018-09-01T02:56:53.556Z,10.76
2018-09-01T02:57:53.544Z,10.71
2018-09-01T02:58:53.548Z,10.76
2018-09-01T02:59:53.520Z,10.71
2018-09-01T03:00:53.512Z,10.61
2018-09-01T03:01:53.501Z,10.64
2018-09-01T03:02:53.490Z,10.63
2018-09-01T03:03:53.494Z,10.70
2018-09-01T03:04:53.469Z,10.70
2018-09-01T03:05:53.458Z,10.67
2018-09-01T03:06:53.447Z,10.55
2018-09-01T03:07:53.457Z,10.60
2018-09-01T03:08:53.426Z,10.59
2018-09-01T03:09:53.448Z,10.53
2018-09-01T03:10:53.403Z,10.44
2018-09-01T03:11:53.392Z,10.48
2018-09-01T03:12:53.379Z,10.44
2018-09-01T03:13:53.370Z,10.47
2018-09-01T03:14:53.360Z,10.47
2018-09-01T03:15:53.371Z,10.47
2018-09-01T03:16:53.336Z,10.44
2018-09-01T03:17:53.324Z,10.48
2018-09-01T03:18:53.317Z,10.51
2018-09-01T03:19:53.309Z,10.38
2018-09-01T03:20:53.295Z,10.36
2018-09-01T03:21:53.295Z,10.36
2018-09-01T03:22:53.273Z,10.48
2018-09-01T03:23:53.260Z,10.36
2018-09-01T03:24:53.280Z,10.38
2018-09-01T03:25:53.239Z,10.40
2018-09-01T03:26:53.227Z,10.47
2018-09-01T03:27:53.216Z,10.40
2018-09-01T03:28:53.207Z,10.38
2018-09-01T03:29:53.194Z,10.36
2018-09-01T03:30:53.210Z,10.38
2018-09-01T03:31:53.175Z,10.23
2018-09-01T03:32:53.166Z,10.33
2018-09-01T03:33:53.153Z,10.23
2018-09-01T03:34:53.142Z,10.25
2018-09-01T03:35:53.130Z,10.27
2018-09-01T03:36:53.135Z,10.25
2018-09-01T03:37:53.108Z,10.20
2018-09-01T03:38:53.101Z,10.14
2018-09-01T03:39:53.089Z,10.11
2018-09-01T03:40:53.075Z,10.08
2018-09-01T03:41:53.082Z,10.17
2018-09-01T03:42:53.056Z,10.12
2018-09-01T03:43:53.045Z,10.12
2018-09-01T03:44:53.033Z,10.08
2018-09-01T03:45:53.024Z,10.11
2018-09-01T03:46:53.031Z,10.09
2018-09-01T03:47:53.002Z,10.04
2018-09-01T03:48:52.991Z,10.08
2018-09-01T03:49:52.980Z,10.05
2018-09-01T03:50:52.968Z,10.01
2018-09-01T03:51:52.959Z,10.02
2018-09-01T03:52:52.970Z,10.02
2018-09-01T03:53:52.936Z,9.96
2018-09-01T03:54:52.931Z,9.97
2018-09-01T03:55:52.918Z,9.99
2018-09-01T03:56:52.904Z,9.96
2018-09-01T03:57:52.896Z,9.97
2018-09-01T03:58:52.896Z,9.90
2018-09-01T03:59:52.884Z,9.86
2018-09-01T04:00:52.861Z,9.90
2018-09-01T04:01:52.851Z,9.84
2018-09-01T04:02:52.839Z,9.87
2018-09-01T04:03:52.844Z,9.97
2018-09-01T04:04:52.819Z,9.89
2018-09-01T04:05:52.807Z,9.81
2018-09-01T04:06:52.795Z,9.76
2018-09-01T04:07:52.782Z,9.78
2018-09-01T04:08:52.819Z,9.79
2018-09-01T04:09:52.761Z,9.81
2018-09-01T04:10:52.750Z,9.74
2018-09-01T04:11:52.745Z,9.81
2018-09-01T04:12:52.729Z,9.75
2018-09-01T04:13:52.716Z,9.76
2018-09-01T04:14:52.720Z,9.83
2018-09-01T04:15:52.697Z,9.83
2018-09-01T04:16:52.685Z,9.75
2018-09-01T04:17:52.676Z,9.79
2018-09-01T04:18:52.665Z,9.74
2018-09-01T04:19:52.680Z,9.78
2018-09-01T04:20:52.644Z,9.79
2018-09-01T04:21:52.632Z,9.72
2018-09-01T04:22:52.619Z,9.75
2018-09-01T04:23:52.612Z,9.72
2018-09-01T04:24:52.600Z,9.69
2018-09-01T04:25:52.609Z,9.65
2018-09-01T04:26:52.578Z,9.74
2018-09-01T04:27:52.564Z,9.68
2018-09-01T04:28:52.559Z,9.64
2018-09-01T04:29:52.582Z,9.64
2018-09-01T04:30:52.531Z,9.69
2018-09-01T04:31:52.564Z,9.66
2018-09-01T04:32:52.510Z,9.66
2018-09-01T04:33:52.503Z,9.66
2018-09-01T04:34:52.494Z,9.60
2018-09-01T04:35:52.477Z,9.65
2018-09-01T04:36:52.468Z,9.66
2018-09-01T04:37:52.472Z,9.66
2018-09-01T04:38:52.447Z,9.56
2018-09-01T04:39:52.437Z,9.65
2018-09-01T04:40:52.429Z,9.54
2018-09-01T04:41:52.414Z,9.64
2018-09-01T04:42:52.439Z,9.58
2018-09-01T04:43:52.389Z,9.51
2018-09-01T04:44:52.379Z,9.58
2018-09-01T04:45:52.371Z,9.60
2018-09-01T04:46:52.389Z,9.54
2018-09-01T04:47:52.349Z,9.56
2018-09-01T04:48:52.377Z,9.54
2018-09-01T04:49:52.326Z,9.46
2018-09-01T04:50:52.314Z,9.54
2018-09-01T04:51:52.313Z,9.48
2018-09-01T04:52:52.292Z,9.46
2018-09-01T04:53:52.279Z,9.43
2018-09-01T04:54:52.285Z,9.50
2018-09-01T04:55:52.258Z,9.51
2018-09-01T04:56:52.247Z,9.51
2018-09-01T04:57:52.238Z,9.46
2018-09-01T04:58:52.240Z,9.48
2018-09-01T04:59:52.214Z,9.50
2018-09-01T05:00:52.247Z,9.46
2018-09-01T05:01:52.195Z,9.40
2018-09-01T05:02:52.189Z,9.42
2018-09-01T05:03:52.192Z,9.46
2018-09-01T05:04:52.181Z,9.42
2018-09-01T05:05:52.152Z,9.46
2018-09-01T05:06:52.138Z,9.50
2018-09-01T05:07:52.128Z,9.46
2018-09-01T05:08:52.120Z,9.56
2018-09-01T05:09:52.107Z,9.54
2018-09-01T05:10:52.110Z,9.50
2018-09-01T05:11:52.082Z,9.57
2018-09-01T05:12:52.075Z,9.54
2018-09-01T05:13:52.073Z,9.56
2018-09-01T05:14:52.051Z,9.47
2018-09-01T05:15:52.055Z,9.56
2018-09-01T05:16:52.028Z,9.56
2018-09-01T05:17:52.019Z,9.40
2018-09-01T05:18:52.019Z,9.51
2018-09-01T05:19:52.009Z,9.51
2018-09-01T05:20:52.001Z,9.64
2018-09-01T05:21:51.976Z,9.57
2018-09-01T05:22:51.964Z,9.71
2018-09-01T05:23:52.011Z,9.68
2018-09-01T05:24:51.947Z,9.78
2018-09-01T05:25:51.954Z,9.83
2018-09-01T05:26:51.926Z,10.09
2018-09-01T05:27:51.907Z,10.29
2018-09-01T05:28:51.898Z,10.48
2018-09-01T05:29:51.885Z,10.66
2018-09-01T05:30:51.875Z,11.00
2018-09-01T05:31:51.887Z,11.22
2018-09-01T05:32:51.853Z,11.29
2018-09-01T05:33:51.843Z,11.32
2018-09-01T05:34:51.833Z,11.25
2018-09-01T05:35:51.823Z,11.21
2018-09-01T05:36:51.814Z,11.21
2018-09-01T05:37:51.811Z,11.19
2018-09-01T05:38:51.792Z,11.03
2018-09-01T05:39:51.776Z,10.92
2018-09-01T05:40:51.768Z,10.86
2018-09-01T05:41:51.770Z,10.78
2018-09-01T05:42:51.751Z,10.71
2018-09-01T05:43:51.734Z,10.64
2018-09-01T05:44:51.725Z,10.68
2018-09-01T05:45:51.713Z,10.59
2018-09-01T05:46:51.726Z,10.56
2018-09-01T05:47:51.689Z,10.45
2018-09-01T05:48:51.678Z,10.47
2018-09-01T05:49:51.668Z,10.48
2018-09-01T05:50:51.742Z,10.38
2018-09-01T05:51:51.648Z,10.44
2018-09-01T05:52:51.649Z,10.42
2018-09-01T05:53:51.625Z,10.51
2018-09-01T05:54:51.614Z,10.36
2018-09-01T05:55:51.601Z,10.40
2018-09-01T05:56:51.591Z,10.45
2018-09-01T05:57:51.599Z,10.41
2018-09-01T05:58:51.568Z,10.40
2018-09-01T05:59:51.560Z,10.36
2018-09-01T06:00:51.552Z,10.33
2018-09-01T06:01:51.539Z,10.34
2018-09-01T06:02:51.541Z,10.47
2018-09-01T06:03:51.513Z,10.48
2018-09-01T06:04:51.502Z,10.48
2018-09-01T06:05:51.528Z,10.48
2018-09-01T06:06:51.482Z,10.48
2018-09-01T06:07:51.496Z,10.48
2018-09-01T06:08:51.460Z,10.48
2018-09-01T06:09:51.448Z,10.51
2018-09-01T06:10:51.438Z,10.51
2018-09-01T06:11:51.431Z,10.56
2018-09-01T06:12:51.418Z,10.59
2018-09-01T06:13:51.449Z,10.55
2018-09-01T06:14:51.392Z,10.61
2018-09-01T06:15:51.382Z,10.64
2018-09-01T06:16:51.370Z,10.61
2018-09-01T06:17:51.393Z,10.76
2018-09-01T06:18:51.348Z,10.73
2018-09-01T06:19:51.352Z,10.74
2018-09-01T06:20:51.327Z,10.76
2018-09-01T06:21:51.316Z,10.76
2018-09-01T06:22:51.301Z,10.91
2018-09-01T06:23:51.338Z,10.86
2018-09-01T06:24:51.339Z,11.02
2018-09-01T06:25:51.274Z,11.03
2018-09-01T06:26:51.261Z,11.18
2018-09-01T06:27:51.247Z,11.27
2018-09-01T06:28:51.252Z,11.49
2018-09-01T06:29:51.223Z,11.75
2018-09-01T06:30:51.215Z,12.23
2018-09-01T06:31:51.204Z,12.70
2018-09-01T06:32:51.235Z,13.04
2018-09-01T06:33:51.202Z,13.52
2018-09-01T06:34:51.170Z,13.97
2018-09-01T06:35:51.179Z,14.21
2018-09-01T06:36:51.147Z,14.60
2018-09-01T06:37:51.139Z,14.99
2018-09-01T06:38:51.127Z,15.35
2018-09-01T06:39:51.138Z,15.39
2018-09-01T06:40:51.105Z,15.69
2018-09-01T06:41:51.095Z,15.97
2018-09-01T06:42:51.143Z,16.39
2018-09-01T06:43:51.072Z,16.67
2018-09-01T06:44:51.060Z,16.86
2018-09-01T06:45:51.075Z,17.08
2018-09-01T06:46:51.037Z,17.14
2018-09-01T06:47:51.027Z,17.22
2018-09-01T06:48:51.016Z,17.25
2018-09-01T06:49:51.007Z,17.23
2018-09-01T06:50:50.998Z,17.33
2018-09-01T06:51:51.001Z,17.46
2018-09-01T06:52:50.970Z,17.66
2018-09-01T06:53:50.959Z,17.74
2018-09-01T06:54:50.948Z,17.93
2018-09-01T06:55:50.939Z,17.96
2018-09-01T06:56:50.943Z,18.11
2018-09-01T06:57:50.915Z,18.15
2018-09-01T06:58:50.907Z,18.05
2018-09-01T06:59:50.894Z,18.21
2018-09-01T07:00:50.885Z,18.18
2018-09-01T07:01:50.893Z,18.27
2018-09-01T07:02:50.864Z,18.44
2018-09-01T07:03:50.851Z,18.47
2018-09-01T07:04:50.840Z,18.45
2018-09-01T07:05:50.831Z,18.55
2018-09-01T07:06:50.819Z,18.51
2018-09-01T07:07:50.826Z,18.55
2018-09-01T07:08:50.899Z,18.65
2018-09-01T07:09:50.785Z,18.57
2018-09-01T07:10:50.780Z,18.45
2018-09-01T07:11:50.767Z,18.41
2018-09-01T07:12:50.754Z,18.39
2018-09-01T07:13:50.760Z,18.33
2018-09-01T07:14:50.735Z,18.26
2018-09-01T07:15:50.719Z,18.32
2018-09-01T07:16:50.711Z,18.33
2018-09-01T07:17:50.699Z,18.27
2018-09-01T07:18:50.710Z,18.26
2018-09-01T07:19:50.673Z,18.26
2018-09-01T07:20:50.662Z,18.25
2018-09-01T07:21:50.650Z,18.12
2018-09-01T07:22:50.644Z,17.86
2018-09-01T07:23:50.631Z,17.71
2018-09-01T07:24:50.634Z,17.58
2018-09-01T07:25:50.607Z,17.34
2018-09-01T07:26:50.597Z,17.26
2018-09-01T07:27:50.585Z,17.21
2018-09-01T07:28:50.576Z,17.30
2018-09-01T07:29:50.580Z,17.38
2018-09-01T07:30:50.834Z,17.48
2018-09-01T07:31:50.543Z,17.71
2018-09-01T07:32:50.533Z,17.96
2018-09-01T07:33:50.526Z,17.96
2018-09-01T07:34:50.531Z,18.11
2018-09-01T07:35:50.500Z,18.26
2018-09-01T07:36:50.492Z,18.36
2018-09-01T07:37:50.482Z,18.45
2018-09-01T07:38:50.467Z,18.48
2018-09-01T07:39:50.497Z,18.55
2018-09-01T07:40:50.448Z,18.51
2018-09-01T07:41:50.435Z,18.47
2018-09-01T07:42:50.428Z,18.48
2018-09-01T07:43:50.414Z,18.27
2018-09-01T07:44:50.406Z,18.23
2018-09-01T07:45:50.403Z,18.15
2018-09-01T07:46:50.391Z,18.08
2018-09-01T07:47:50.372Z,18.07
2018-09-01T07:48:50.359Z,18.15
2018-09-01T07:49:50.385Z,18.27
2018-09-01T07:50:50.370Z,18.55
2018-09-01T07:51:50.326Z,18.65
2018-09-01T07:52:50.313Z,18.57
2018-09-01T07:53:50.302Z,18.51
2018-09-01T07:54:50.292Z,18.55
2018-09-01T07:55:50.281Z,18.76
2018-09-01T07:56:50.285Z,18.88
2018-09-01T07:57:50.260Z,18.92
2018-09-01T07:58:50.245Z,18.90
2018-09-01T07:59:50.238Z,18.98
2018-09-01T08:00:50.224Z,19.06
2018-09-01T08:01:50.236Z,19.16
2018-09-01T08:02:50.201Z,19.21
2018-09-01T08:03:50.191Z,19.10
2018-09-01T08:04:50.183Z,18.85
2018-09-01T08:05:50.172Z,18.67
2018-09-01T08:06:50.175Z,18.41
2018-09-01T08:07:50.148Z,18.32
2018-09-01T08:08:50.154Z,18.23
2018-09-01T08:09:50.126Z,18.27
2018-09-01T08:10:50.117Z,18.21
2018-09-01T08:11:50.103Z,18.29
2018-09-01T08:12:50.092Z,18.26
2018-09-01T08:13:50.156Z,18.32
2018-09-01T08:14:50.084Z,18.48
2018-09-01T08:15:50.064Z,18.58
2018-09-01T08:16:50.051Z,18.58
2018-09-01T08:17:50.041Z,18.62
2018-09-01T08:18:50.031Z,18.75
2018-09-01T08:19:50.030Z,18.88
2018-09-01T08:20:50.023Z,18.85
2018-09-01T08:21:50.009Z,18.88
2018-09-01T08:22:49.981Z,19.10
2018-09-01T08:23:49.985Z,19.11
2018-09-01T08:24:49.963Z,19.26
2018-09-01T08:25:49.952Z,19.56
2018-09-01T08:26:49.942Z,19.77
2018-09-01T08:27:49.932Z,20.03
2018-09-01T08:28:49.945Z,20.10
2018-09-01T08:29:49.912Z,20.08
2018-09-01T08:30:49.900Z,20.10
2018-09-01T08:31:49.895Z,20.06
2018-09-01T08:32:49.881Z,20.06
2018-09-01T08:33:49.883Z,19.86
2018-09-01T08:34:49.872Z,19.66
2018-09-01T08:35:49.846Z,19.43
2018-09-01T08:36:49.836Z,19.26
2018-09-01T08:37:49.826Z,18.98
2018-09-01T08:38:49.821Z,18.80
2018-09-01T08:39:49.817Z,18.76
2018-09-01T08:40:49.795Z,18.78
2018-09-01T08:41:49.782Z,18.80
2018-09-01T08:42:49.773Z,18.87
2018-09-01T08:43:49.760Z,19.07
2018-09-01T08:44:49.763Z,19.28
2018-09-01T08:45:49.750Z,19.54
2018-09-01T08:46:49.725Z,19.71
2018-09-01T08:47:49.713Z,19.88
2018-09-01T08:48:49.728Z,20.08
2018-09-01T08:49:49.692Z,19.98
2018-09-01T08:50:49.681Z,20.06
2018-09-01T08:51:49.677Z,20.08
2018-09-01T08:52:49.662Z,20.16
2018-09-01T08:53:49.648Z,20.16
2018-09-01T08:54:49.657Z,20.06
2018-09-01T08:55:49.629Z,20.18
2018-09-01T08:56:49.637Z,20.02
2018-09-01T08:57:49.609Z,19.78
2018-09-01T08:58:49.597Z,19.66
2018-09-01T08:59:49.590Z,19.68
2018-09-01T09:00:49.577Z,19.63
2018-09-01T09:01:49.583Z,19.63
2018-09-01T09:02:49.554Z,19.63
2018-09-01T09:03:49.547Z,19.65
2018-09-01T09:04:49.532Z,19.74
2018-09-01T09:05:49.522Z,19.59
2018-09-01T09:06:49.526Z,19.50
2018-09-01T09:07:49.513Z,19.36
2018-09-01T09:08:49.488Z,19.23
2018-09-01T09:09:49.477Z,19.02
2018-09-01T09:10:49.469Z,18.95
2018-09-01T09:11:49.474Z,19.11
2018-09-01T09:12:49.443Z,19.37
2018-09-01T09:13:49.448Z,19.46
2018-09-01T09:14:49.424Z,19.50
2018-09-01T09:15:49.414Z,19.46
2018-09-01T09:16:49.401Z,19.46
2018-09-01T09:17:49.391Z,19.36
2018-09-01T09:18:49.397Z,19.26
2018-09-01T09:19:49.369Z,19.14
2018-09-01T09:20:49.357Z,19.11
2018-09-01T09:21:49.345Z,19.10
2018-09-01T09:22:49.340Z,19.00
2018-09-01T09:23:49.345Z,18.95
2018-09-01T09:24:49.320Z,18.90
2018-09-01T09:25:49.301Z,18.69
2018-09-01T09:26:49.292Z,18.72
2018-09-01T09:27:49.287Z,18.70
2018-09-01T09:28:49.269Z,18.63
2018-09-01T09:29:49.272Z,18.63
2018-09-01T09:30:49.248Z,18.60
2018-09-01T09:31:49.238Z,18.58
2018-09-01T09:32:49.224Z,18.58
2018-09-01T09:33:49.219Z,18.60
2018-09-01T09:34:49.220Z,18.60
2018-09-01T09:35:49.193Z,18.57
2018-09-01T09:36:49.180Z,18.47
2018-09-01T09:37:49.174Z,18.39
2018-09-01T09:38:49.161Z,18.36
2018-09-01T09:39:49.167Z,18.29
2018-09-01T09:40:49.152Z,18.30
2018-09-01T09:41:49.174Z,18.36
2018-09-01T09:42:49.115Z,18.30
2018-09-01T09:43:49.105Z,18.29
2018-09-01T09:44:49.136Z,18.39
2018-09-01T09:45:49.085Z,18.47
2018-09-01T09:46:49.077Z,18.60
2018-09-01T09:47:49.061Z,18.66
2018-09-01T09:48:49.049Z,18.81
2018-09-01T09:49:49.041Z,18.94
2018-09-01T09:50:49.042Z,19.00
2018-09-01T09:51:49.018Z,19.29
2018-09-01T09:52:49.049Z,19.51
2018-09-01T09:53:48.997Z,19.74
2018-09-01T09:54:48.988Z,19.88
2018-09-01T09:55:48.990Z,20.06
2018-09-01T09:56:48.965Z,20.21
2018-09-01T09:57:48.951Z,20.28
2018-09-01T09:58:48.950Z,20.39
2018-09-01T09:59:48.936Z,20.66
2018-09-01T10:00:48.944Z,20.74
2018-09-01T10:01:48.912Z,20.95
2018-09-01T10:02:48.909Z,20.99
2018-09-01T10:03:48.915Z,21.27
2018-09-01T10:04:48.892Z,21.31
2018-09-01T10:05:48.884Z,21.47
2018-09-01T10:06:48.872Z,21.49
2018-09-01T10:07:48.872Z,21.40
2018-09-01T10:08:48.835Z,21.31
2018-09-01T10:09:48.828Z,21.19
2018-09-01T10:10:48.820Z,21.12
2018-09-01T10:11:48.825Z,20.97
2018-09-01T10:12:48.796Z,20.84
2018-09-01T10:13:48.784Z,20.73
2018-09-01T10:14:48.811Z,20.82
2018-09-01T10:15:48.882Z,21.06
2018-09-01T10:16:48.766Z,21.24
2018-09-01T10:17:48.747Z,21.50
2018-09-01T10:18:48.730Z,21.53
2018-09-01T10:19:48.722Z,21.75
2018-09-01T10:20:48.714Z,21.64
2018-09-01T10:21:48.712Z,21.49
2018-09-01T10:22:48.687Z,21.40
2018-09-01T10:23:48.677Z,21.21
2018-09-01T10:24:48.667Z,21.06
2018-09-01T10:25:48.658Z,20.87
2018-09-01T10:26:48.704Z,20.70
2018-09-01T10:27:48.637Z,20.67
2018-09-01T10:28:48.621Z,20.52
2018-09-01T10:29:48.610Z,20.42
2018-09-01T10:30:48.600Z,20.26
2018-09-01T10:31:48.607Z,20.21
2018-09-01T10:32:48.592Z,20.03
2018-09-01T10:33:48.583Z,19.92
2018-09-01T10:34:48.571Z,19.77
2018-09-01T10:35:48.546Z,19.71
2018-09-01T10:36:48.537Z,19.58
2018-09-01T10:37:48.545Z,19.47
2018-09-01T10:38:48.514Z,19.55
2018-09-01T10:39:48.502Z,19.37
2018-09-01T10:40:48.494Z,19.32
2018-09-01T10:41:48.480Z,19.36
2018-09-01T10:42:48.485Z,19.26
2018-09-01T10:43:48.461Z,19.40
2018-09-01T10:44:48.473Z,19.51
2018-09-01T10:45:48.437Z,19.83
2018-09-01T10:46:48.426Z,20.13
2018-09-01T10:47:48.416Z,20.33
2018-09-01T10:48:48.406Z,20.62
2018-09-01T10:49:48.398Z,20.85
2018-09-01T10:50:48.396Z,21.09
2018-09-01T10:51:48.397Z,21.40
2018-09-01T10:52:48.359Z,21.50
2018-09-01T10:53:48.350Z,21.59
2018-09-01T10:54:48.340Z,21.72
2018-09-01T10:55:48.331Z,21.96
2018-09-01T10:56:48.319Z,22.05
2018-09-01T10:57:48.320Z,22.25
2018-09-01T10:58:48.322Z,22.47
2018-09-01T10:59:48.356Z,22.58
2018-09-01T11:00:48.288Z,22.75
2018-09-01T11:01:48.266Z,22.79
2018-09-01T11:02:48.256Z,23.04
2018-09-01T11:03:48.246Z,23.02
2018-09-01T11:04:48.235Z,22.76
2018-09-01T11:05:48.236Z,22.76
2018-09-01T11:06:48.214Z,22.83
2018-09-01T11:07:48.230Z,22.91
2018-09-01T11:08:48.191Z,23.12
2018-09-01T11:09:48.180Z,22.92
2018-09-01T11:10:48.176Z,22.75
2018-09-01T11:11:48.163Z,22.82
2018-09-01T11:12:48.148Z,22.77
2018-09-01T11:13:48.174Z,22.83
2018-09-01T11:14:48.128Z,22.73
2018-09-01T11:15:48.118Z,22.79
2018-09-01T11:16:48.122Z,22.76
2018-09-01T11:17:48.103Z,22.76
2018-09-01T11:18:48.095Z,22.75
2018-09-01T11:19:48.086Z,23.02
2018-09-01T11:20:48.101Z,23.10
2018-09-01T11:21:48.076Z,23.50
2018-09-01T11:22:48.043Z,23.73
2018-09-01T11:23:48.031Z,23.79
2018-09-01T11:24:48.023Z,23.83
2018-09-01T11:25:48.025Z,23.72
2018-09-01T11:26:48.034Z,23.63
2018-09-01T11:27:48.073Z,23.50
2018-09-01T11:28:47.980Z,23.25
2018-09-01T11:29:47.969Z,23.12
2018-09-01T11:30:47.958Z,22.97
2018-09-01T11:31:47.949Z,22.77
2018-09-01T11:32:47.955Z,22.61
2018-09-01T11:33:47.925Z,22.46
2018-09-01T11:34:47.918Z,22.36
2018-09-01T11:35:47.923Z,22.18
2018-09-01T11:36:47.973Z,22.03
2018-09-01T11:37:47.902Z,21.99
2018-09-01T11:38:47.876Z,21.91
2018-09-01T11:39:47.863Z,21.75
2018-09-01T11:40:47.868Z,21.62
2018-09-01T11:41:47.858Z,21.58
2018-09-01T11:42:47.915Z,21.47
2018-09-01T11:43:47.821Z,21.50
2018-09-01T11:44:47.825Z,21.59
2018-09-01T11:45:47.799Z,21.80
2018-09-01T11:46:47.803Z,21.83
2018-09-01T11:47:47.779Z,21.99
2018-09-01T11:48:47.786Z,22.25
2018-09-01T11:49:47.757Z,22.37
2018-09-01T11:50:47.767Z,22.65
2018-09-01T11:51:47.735Z,22.80
2018-09-01T11:52:47.725Z,22.95
2018-09-01T11:53:47.723Z,23.36
2018-09-01T11:54:47.704Z,23.53
2018-09-01T11:55:47.694Z,23.55
2018-09-01T11:56:47.694Z,23.63
2018-09-01T11:57:47.672Z,23.47
2018-09-01T11:58:47.707Z,23.20
2018-09-01T11:59:47.650Z,23.02
2018-09-01T12:00:47.640Z,22.91
2018-09-01T12:01:47.626Z,22.77
2018-09-01T12:02:47.618Z,22.55
2018-09-01T12:03:47.635Z,22.47
2018-09-01T12:04:47.596Z,22.37
2018-09-01T12:05:47.583Z,22.24
2018-09-01T12:06:47.571Z,22.22
2018-09-01T12:07:47.562Z,22.10
2018-09-01T12:08:47.598Z,21.90
2018-09-01T12:09:47.548Z,21.71
2018-09-01T12:10:47.530Z,21.72
2018-09-01T12:11:47.526Z,21.61
2018-09-01T12:12:47.509Z,21.47
2018-09-01T12:13:47.531Z,21.31
2018-09-01T12:14:47.488Z,21.22
2018-09-01T12:15:47.546Z,21.17
2018-09-01T12:16:47.465Z,21.03
2018-09-01T12:17:47.458Z,20.98
2018-09-01T12:18:47.445Z,20.94
2018-09-01T12:19:47.451Z,20.92
2018-09-01T12:20:47.425Z,20.98
2018-09-01T12:21:47.415Z,21.03
2018-09-01T12:22:47.402Z,21.10
2018-09-01T12:23:47.390Z,21.35
2018-09-01T12:24:47.398Z,21.49
2018-09-01T12:25:47.369Z,21.71
2018-09-01T12:26:47.374Z,21.91
2018-09-01T12:27:47.350Z,22.14
2018-09-01T12:28:47.339Z,22.28
2018-09-01T12:29:47.344Z,22.42
2018-09-01T12:30:47.315Z,22.51
2018-09-01T12:31:47.306Z,22.76
2018-09-01T12:32:47.294Z,22.85
2018-09-01T12:33:47.288Z,23.02
2018-09-01T12:34:47.299Z,23.16
2018-09-01T12:35:47.264Z,23.09
2018-09-01T12:36:47.256Z,23.02
2018-09-01T12:37:47.243Z,23.04
2018-09-01T12:38:47.235Z,23.23
2018-09-01T12:39:47.220Z,23.42
2018-09-01T12:40:47.231Z,23.40
2018-09-01T12:41:47.200Z,23.39
2018-09-01T12:42:47.190Z,23.35
2018-09-01T12:43:47.176Z,23.17
2018-09-01T12:44:47.168Z,23.12
2018-09-01T12:45:47.159Z,22.98
2018-09-01T12:46:47.161Z,22.85
2018-09-01T12:47:47.137Z,22.75
2018-09-01T12:48:47.123Z,22.73
2018-09-01T12:49:47.117Z,22.57
2018-09-01T12:50:47.117Z,22.49
2018-09-01T12:51:47.092Z,22.31
2018-09-01T12:52:47.085Z,22.30
2018-09-01T12:53:47.092Z,22.25
2018-09-01T12:54:47.064Z,22.21
2018-09-01T12:55:47.051Z,22.36